createdAt,value
2019-05-18T00:01:13.573Z,77.27
2019-05-18T00:03:42.078Z,76.88
2019-05-18T00:06:10.504Z,77.02
2019-05-18T00:08:38.953Z,76.17
2019-05-18T00:11:07.457Z,77.19
2019-05-18T00:13:36.001Z,76.56
2019-05-18T00:16:04.548Z,76.72
2019-05-18T00:18:33.007Z,76.70
2019-05-18T00:21:01.480Z,77.00
2019-05-18T00:23:29.935Z,76.87
2019-05-18T00:25:58.445Z,76.66
2019-05-18T00:28:26.940Z,76.47
2019-05-18T00:30:55.407Z,76.63
2019-05-18T00:33:23.919Z,76.85
2019-05-18T00:35:52.336Z,77.32
2019-05-18T00:38:20.807Z,77.47
2019-05-18T00:40:49.239Z,77.76
2019-05-18T00:43:17.695Z,77.89
2019-05-18T00:45:46.125Z,78.37
2019-05-18T00:48:14.535Z,78.35
2019-05-18T00:50:42.980Z,78.31
2019-05-18T00:53:11.464Z,78.47
2019-05-18T00:55:39.893Z,78.19
2019-05-18T00:58:08.403Z,77.75
2019-05-18T01:00:36.861Z,77.69
2019-05-18T01:03:05.285Z,77.28
2019-05-18T01:05:33.817Z,76.58
2019-05-18T01:08:02.251Z,76.12
2019-05-18T01:10:30.705Z,76.51
2019-05-18T01:12:59.113Z,76.67
2019-05-18T01:15:27.644Z,77.13
2019-05-18T01:17:57.650Z,77.47
2019-05-18T01:20:26.237Z,77.38
2019-05-18T01:22:54.654Z,76.62
2019-05-18T01:25:23.106Z,76.88
2019-05-18T01:27:51.541Z,76.99
2019-05-18T01:30:20.259Z,77.28
2019-05-18T01:32:48.737Z,77.53
2019-05-18T01:35:17.330Z,77.46
2019-05-18T01:37:45.750Z,76.07
2019-05-18T01:40:14.316Z,75.80
2019-05-18T01:42:42.725Z,75.41
2019-05-18T01:45:17.002Z,74.90
2019-05-18T01:47:41.746Z,73.76
2019-05-18T01:50:10.634Z,74.98
2019-05-18T01:52:39.076Z,75.04
2019-05-18T01:55:08.157Z,75.42
2019-05-18T01:57:36.579Z,75.76
2019-05-18T02:00:07.289Z,75.36
2019-05-18T02:02:35.689Z,75.31
2019-05-18T02:05:05.579Z,75.21
2019-05-18T02:07:34.048Z,75.58
2019-05-18T02:10:02.794Z,75.38
2019-05-18T02:12:31.316Z,75.92
2019-05-18T02:14:59.748Z,75.36
2019-05-18T02:17:28.220Z,75.11
2019-05-18T02:19:56.648Z,76.03
2019-05-18T02:22:25.086Z,76.42
2019-05-18T02:24:53.500Z,76.70
2019-05-18T02:27:21.951Z,75.67
2019-05-18T02:29:50.377Z,75.39
2019-05-18T02:32:18.838Z,75.90
2019-05-18T02:34:47.279Z,75.98
2019-05-18T02:37:15.725Z,76.06
2019-05-18T02:39:44.141Z,76.19
2019-05-18T02:42:12.622Z,76.40
2019-05-18T02:44:41.055Z,77.15
2019-05-18T02:47:09.487Z,76.74
2019-05-18T02:49:41.088Z,76.87
2019-05-18T02:52:09.554Z,76.40
2019-05-18T02:54:38.002Z,76.73
2019-05-18T02:57:06.432Z,76.28
2019-05-18T02:59:34.861Z,76.81
2019-05-18T03:02:03.391Z,77.05
2019-05-18T03:04:31.805Z,75.99
2019-05-18T03:07:00.385Z,76.67
2019-05-18T03:09:28.875Z,76.18
2019-05-18T03:11:57.502Z,76.05
2019-05-18T03:14:25.926Z,76.78
2019-05-18T03:16:54.431Z,76.63
2019-05-18T03:19:22.872Z,77.25
2019-05-18T03:21:51.322Z,76.98
2019-05-18T03:24:19.754Z,76.53
2019-05-18T03:26:48.207Z,76.44
2019-05-18T03:29:16.652Z,77.12
2019-05-18T03:31:45.085Z,76.56
2019-05-18T03:34:13.508Z,75.49
2019-05-18T03:36:41.955Z,74.49
2019-05-18T03:39:10.406Z,75.82
2019-05-18T03:41:38.911Z,75.35
2019-05-18T03:44:07.336Z,75.42
2019-05-18T03:46:35.751Z,75.43
2019-05-18T03:49:04.286Z,75.45
2019-05-18T03:51:32.726Z,75.80
2019-05-18T03:54:01.196Z,76.28
2019-05-18T03:56:29.627Z,76.48
2019-05-18T03:58:58.073Z,76.23
2019-05-18T04:01:26.506Z,76.69
2019-05-18T04:03:54.951Z,76.63
2019-05-18T04:06:23.364Z,76.81
2019-05-18T04:08:51.792Z,76.48
2019-05-18T04:11:20.230Z,76.00
2019-05-18T04:13:48.673Z,76.61
2019-05-18T04:16:17.106Z,77.11
2019-05-18T04:18:45.542Z,76.64
2019-05-18T04:21:13.955Z,76.51
2019-05-18T04:23:42.423Z,76.38
2019-05-18T04:26:10.866Z,76.86
2019-05-18T04:28:39.300Z,76.85
2019-05-18T04:31:07.737Z,76.79
2019-05-18T04:33:36.198Z,76.76
2019-05-18T04:36:04.689Z,76.86
2019-05-18T04:38:33.141Z,76.74
2019-05-18T04:41:01.572Z,76.84
2019-05-18T04:43:30.024Z,76.64
2019-05-18T04:45:58.475Z,76.59
2019-05-18T04:48:26.892Z,76.57
2019-05-18T04:50:55.338Z,76.78
2019-05-18T04:53:23.752Z,77.12
2019-05-18T04:55:52.199Z,76.71
2019-05-18T04:58:20.682Z,76.42
2019-05-18T05:00:49.187Z,75.78
2019-05-18T05:03:17.647Z,75.75
2019-05-18T05:05:46.072Z,76.11
2019-05-18T05:08:14.531Z,76.07
2019-05-18T05:10:42.962Z,75.83
2019-05-18T05:13:11.458Z,75.47
2019-05-18T05:15:39.971Z,75.41
2019-05-18T05:18:08.779Z,75.14
2019-05-18T05:20:37.254Z,74.64
2019-05-18T05:23:05.725Z,75.15
2019-05-18T05:25:34.162Z,74.88
2019-05-18T05:28:02.605Z,74.75
2019-05-18T05:30:31.040Z,75.14
2019-05-18T05:32:59.534Z,75.31
2019-05-18T05:35:27.988Z,74.18
2019-05-18T05:37:56.412Z,74.61
2019-05-18T05:40:24.846Z,74.69
2019-05-18T05:42:53.367Z,74.62
2019-05-18T05:45:21.796Z,74.82
2019-05-18T05:47:50.230Z,74.82
2019-05-18T05:50:34.145Z,74.79
2019-05-18T05:52:49.003Z,74.70
2019-05-18T05:55:17.528Z,74.73
2019-05-18T05:57:45.959Z,73.92
2019-05-18T06:00:14.633Z,73.64
2019-05-18T06:02:43.066Z,74.84
2019-05-18T06:05:13.329Z,74.35
2019-05-18T06:07:41.757Z,73.60
2019-05-18T06:10:10.430Z,73.50
2019-05-18T06:12:38.850Z,73.96
2019-05-18T06:15:09.369Z,74.55
2019-05-18T06:17:37.821Z,74.95
2019-05-18T06:20:07.884Z,74.76
2019-05-18T06:22:36.329Z,74.69
2019-05-18T06:25:07.045Z,73.90
2019-05-18T06:27:35.657Z,73.80
2019-05-18T06:30:05.525Z,72.87
2019-05-18T06:32:33.971Z,73.36
2019-05-18T06:35:02.398Z,72.75
2019-05-18T06:37:30.828Z,72.49
2019-05-18T06:39:59.235Z,72.71
2019-05-18T06:42:27.705Z,72.97
2019-05-18T06:44:56.145Z,72.90
2019-05-18T06:47:24.587Z,73.02
2019-05-18T06:49:53.005Z,72.66
2019-05-18T06:52:21.513Z,71.97
2019-05-18T06:54:49.885Z,72.30
2019-05-18T06:57:18.571Z,72.83
2019-05-18T06:59:47.032Z,73.05
2019-05-18T07:02:15.471Z,72.68
2019-05-18T07:04:44.705Z,72.60
2019-05-18T07:07:13.246Z,72.48
2019-05-18T07:09:41.658Z,72.31
2019-05-18T07:12:10.137Z,72.48
2019-05-18T07:14:38.583Z,72.57
2019-05-18T07:17:08.541Z,72.16
2019-05-18T07:19:37.020Z,72.77
2019-05-18T07:22:05.555Z,73.26
2019-05-18T07:24:33.972Z,73.14
2019-05-18T07:27:02.437Z,73.49
2019-05-18T07:29:30.949Z,73.67
2019-05-18T07:31:59.426Z,73.82
2019-05-18T07:34:28.435Z,72.28
2019-05-18T07:36:56.832Z,73.20
2019-05-18T07:39:25.272Z,73.40
2019-05-18T07:41:53.727Z,73.20
2019-05-18T07:44:22.196Z,74.22
2019-05-18T07:46:51.135Z,74.11
2019-05-18T07:49:19.593Z,74.73
2019-05-18T07:51:48.042Z,74.60
2019-05-18T07:54:16.458Z,73.41
2019-05-18T07:56:44.980Z,73.09
2019-05-18T07:59:13.457Z,72.33
2019-05-18T08:01:41.888Z,72.30
2019-05-18T08:04:10.339Z,72.75
2019-05-18T08:06:38.771Z,72.06
2019-05-18T08:09:08.090Z,71.75
2019-05-18T08:11:36.509Z,70.84
2019-05-18T08:14:05.030Z,69.99
2019-05-18T08:16:33.477Z,69.84
2019-05-18T08:19:02.035Z,70.69
2019-05-18T08:21:30.451Z,70.62
2019-05-18T08:23:58.872Z,71.56
2019-05-18T08:26:27.291Z,70.12
2019-05-18T08:28:55.743Z,71.78
2019-05-18T08:31:24.190Z,69.39
2019-05-18T08:33:52.642Z,69.28
2019-05-18T08:36:21.061Z,69.67
2019-05-18T08:38:49.510Z,69.43
2019-05-18T08:41:17.933Z,69.33
2019-05-18T08:43:46.373Z,69.71
2019-05-18T08:46:14.795Z,68.75
2019-05-18T08:48:43.241Z,67.39
2019-05-18T08:51:11.692Z,68.75
2019-05-18T08:53:40.101Z,68.60
2019-05-18T08:56:08.562Z,68.82
2019-05-18T08:58:37.012Z,67.48
2019-05-18T09:01:05.480Z,67.61
2019-05-18T09:03:34.022Z,67.86
2019-05-18T09:06:02.614Z,69.75
2019-05-18T09:08:31.041Z,65.55
2019-05-18T09:10:59.523Z,65.40
2019-05-18T09:13:27.976Z,65.40
2019-05-18T09:15:56.432Z,65.10
2019-05-18T09:18:24.861Z,63.68
2019-05-18T09:20:53.369Z,63.00
2019-05-18T09:23:21.823Z,62.98
2019-05-18T09:25:50.272Z,62.69
2019-05-18T09:28:18.689Z,60.89
2019-05-18T09:30:47.126Z,59.21
2019-05-18T09:33:15.564Z,58.67
2019-05-18T09:35:44.009Z,57.89
2019-05-18T09:38:12.445Z,58.18
2019-05-18T09:40:40.894Z,59.54
2019-05-18T09:43:09.298Z,57.61
2019-05-18T09:45:37.758Z,57.79
2019-05-18T09:48:06.344Z,55.72
2019-05-18T09:50:34.798Z,53.95
2019-05-18T09:53:03.239Z,54.22
2019-05-18T09:55:31.690Z,53.14
2019-05-18T09:58:00.122Z,56.12
2019-05-18T10:00:36.935Z,56.27
2019-05-18T10:02:58.771Z,58.01
2019-05-18T10:05:27.244Z,59.37
2019-05-18T10:07:55.671Z,57.96
2019-05-18T10:10:24.331Z,56.51
2019-05-18T10:12:52.783Z,55.97
2019-05-18T10:15:21.305Z,53.97
2019-05-18T10:17:49.748Z,54.28
2019-05-18T10:20:18.759Z,52.54
2019-05-18T10:22:58.999Z,52.54
2019-05-18T10:25:17.526Z,56.33
2019-05-18T10:27:45.974Z,51.51
2019-05-18T10:30:14.986Z,55.59
2019-05-18T10:32:43.508Z,55.21
2019-05-18T10:35:12.093Z,57.66
2019-05-18T10:37:40.519Z,55.09
2019-05-18T10:40:09.878Z,53.37
2019-05-18T10:42:38.312Z,50.13
2019-05-18T10:45:10.641Z,55.38
2019-05-18T10:47:39.077Z,50.06
2019-05-18T10:50:07.877Z,47.86
2019-05-18T10:52:36.355Z,48.89
2019-05-18T10:55:07.115Z,48.83
2019-05-18T10:57:38.484Z,48.66
2019-05-18T11:00:12.149Z,40.55
2019-05-18T11:02:40.628Z,35.21
2019-05-18T11:05:13.459Z,34.14
2019-05-18T11:07:42.992Z,37.38
2019-05-18T11:10:11.853Z,32.79
2019-05-18T11:12:40.370Z,32.69
2019-05-18T11:15:09.643Z,30.50
2019-05-18T11:17:38.179Z,29.63
2019-05-18T11:20:08.980Z,28.74
2019-05-18T11:22:37.674Z,33.58
2019-05-18T11:25:08.088Z,32.42
2019-05-18T11:27:36.629Z,33.34
2019-05-18T11:30:08.079Z,34.74
2019-05-18T11:32:37.150Z,30.79
2019-05-18T11:35:08.954Z,29.97
2019-05-18T11:37:37.388Z,29.61
2019-05-18T11:40:10.130Z,27.72
2019-05-18T11:42:38.607Z,28.05
2019-05-18T11:45:25.241Z,28.05
2019-05-18T11:47:53.644Z,26.65
2019-05-18T11:50:22.305Z,25.54
2019-05-18T11:52:50.751Z,25.29
2019-05-18T11:55:19.915Z,27.73
2019-05-18T11:57:48.358Z,25.88
2019-05-18T12:00:17.415Z,27.59
2019-05-18T12:02:45.851Z,25.85
2019-05-18T12:05:15.519Z,29.33
2019-05-18T12:07:43.945Z,27.03
2019-05-18T12:10:12.926Z,24.67
2019-05-18T12:12:41.368Z,25.32
2019-05-18T12:15:11.238Z,27.44
2019-05-18T12:17:39.671Z,25.43
2019-05-18T12:20:08.751Z,29.28
2019-05-18T12:22:39.815Z,28.41
2019-05-18T12:25:08.868Z,25.28
2019-05-18T12:29:50.406Z,29.56
2019-05-18T12:32:18.884Z,28.91
2019-05-18T12:34:47.322Z,25.29
2019-05-18T12:37:17.376Z,26.11
2019-05-18T12:39:45.994Z,24.48
2019-05-18T12:42:14.402Z,23.73
2019-05-18T12:44:42.840Z,23.81
2019-05-18T12:47:14.252Z,25.06
2019-05-18T12:49:41.461Z,25.96
2019-05-18T12:52:09.971Z,27.41
2019-05-18T12:54:46.451Z,27.51
2019-05-18T12:57:08.914Z,25.53
2019-05-18T12:59:37.348Z,25.90
2019-05-18T13:02:05.842Z,28.28
2019-05-18T13:04:34.765Z,28.17
2019-05-18T13:07:03.168Z,30.08
2019-05-18T13:09:31.604Z,29.96
2019-05-18T13:12:00.030Z,29.30
2019-05-18T13:14:28.448Z,30.83
2019-05-18T13:16:56.919Z,28.52
2019-05-18T13:19:25.341Z,29.45
2019-05-18T13:21:53.829Z,29.50
2019-05-18T13:24:22.356Z,29.95
2019-05-18T13:26:50.760Z,32.90
2019-05-18T13:29:19.184Z,33.12
2019-05-18T13:31:47.595Z,33.04
2019-05-18T13:34:16.039Z,35.38
2019-05-18T13:36:44.460Z,31.84
2019-05-18T13:39:12.891Z,30.14
2019-05-18T13:41:41.314Z,31.11
2019-05-18T13:44:09.726Z,28.50
2019-05-18T13:46:38.150Z,30.72
2019-05-18T13:49:06.647Z,32.11
2019-05-18T13:51:35.263Z,33.58
2019-05-18T13:54:03.748Z,34.14
2019-05-18T13:56:32.189Z,33.96
2019-05-18T13:59:00.591Z,32.81
2019-05-18T14:01:29.069Z,34.77
2019-05-18T14:03:57.470Z,33.99
2019-05-18T14:06:25.888Z,35.05
2019-05-18T14:08:54.295Z,34.29
2019-05-18T14:11:22.705Z,34.85
2019-05-18T14:13:51.129Z,31.87
2019-05-18T14:16:19.586Z,32.47
2019-05-18T14:18:47.983Z,33.74
2019-05-18T14:21:16.394Z,34.38
2019-05-18T14:23:44.827Z,34.01
2019-05-18T14:26:13.245Z,35.32
2019-05-18T14:28:41.668Z,34.02
2019-05-18T14:31:10.163Z,34.40
2019-05-18T14:33:38.584Z,34.58
2019-05-18T14:36:07.049Z,33.57
2019-05-18T14:38:35.456Z,32.73
2019-05-18T14:41:03.968Z,33.20
2019-05-18T14:43:32.367Z,32.80
2019-05-18T14:46:00.820Z,35.19
2019-05-18T14:48:29.233Z,35.39
2019-05-18T14:50:57.685Z,35.36
2019-05-18T14:53:26.083Z,33.45
2019-05-18T14:55:54.511Z,35.61
2019-05-18T14:58:22.931Z,33.78
2019-05-18T15:00:51.360Z,35.47
2019-05-18T15:03:19.771Z,30.54
2019-05-18T15:05:48.187Z,33.46
2019-05-18T15:08:16.614Z,32.85
2019-05-18T15:10:45.135Z,31.43
2019-05-18T15:13:13.585Z,33.11
2019-05-18T15:15:41.987Z,32.56
2019-05-18T15:18:10.393Z,33.48
2019-05-18T15:20:38.814Z,32.54
2019-05-18T15:23:07.266Z,31.26
2019-05-18T15:25:49.551Z,33.28
2019-05-18T15:28:05.934Z,32.31
2019-05-18T15:30:34.367Z,34.15
2019-05-18T15:33:02.844Z,32.96
2019-05-18T15:35:31.324Z,32.61
2019-05-18T15:37:59.905Z,33.95
2019-05-18T15:40:28.368Z,33.53
2019-05-18T15:42:56.773Z,31.78
2019-05-18T15:45:25.275Z,32.84
2019-05-18T15:47:53.743Z,32.86
2019-05-18T15:50:22.483Z,33.20
2019-05-18T15:52:50.924Z,33.45
2019-05-18T15:55:20.110Z,34.97
2019-05-18T15:57:48.657Z,35.03
2019-05-18T16:00:17.186Z,35.10
2019-05-18T16:02:45.612Z,35.10
2019-05-18T16:05:14.758Z,36.28
2019-05-18T16:07:43.283Z,35.49
2019-05-18T16:10:12.347Z,37.24
2019-05-18T16:12:40.855Z,37.20
2019-05-18T16:15:10.759Z,35.82
2019-05-18T16:17:40.405Z,36.58
2019-05-18T16:20:09.559Z,36.61
2019-05-18T16:22:38.025Z,36.76
2019-05-18T16:25:08.883Z,36.78
2019-05-18T16:27:37.318Z,36.68
2019-05-18T16:30:08.106Z,37.44
2019-05-18T16:32:36.556Z,37.81
2019-05-18T16:35:09.615Z,37.36
2019-05-18T16:37:38.160Z,36.99
2019-05-18T16:40:08.008Z,38.65
2019-05-18T16:42:36.561Z,37.90
2019-05-18T16:45:07.815Z,39.55
2019-05-18T16:47:36.453Z,38.54
2019-05-18T16:50:06.572Z,38.14
2019-05-18T16:52:35.002Z,36.88
2019-05-18T16:55:03.978Z,37.38
2019-05-18T16:57:32.443Z,37.54
2019-05-18T17:00:04.306Z,35.70
2019-05-18T17:02:32.731Z,36.15
2019-05-18T17:05:01.167Z,35.40
2019-05-18T17:07:29.576Z,34.68
2019-05-18T17:09:58.044Z,37.02
2019-05-18T17:12:26.568Z,35.16
2019-05-18T17:14:58.254Z,35.25
2019-05-18T17:17:26.675Z,35.38
2019-05-18T17:19:55.123Z,36.17
2019-05-18T17:22:23.538Z,35.46
2019-05-18T17:24:51.977Z,35.83
2019-05-18T17:27:20.403Z,35.23
2019-05-18T17:29:48.851Z,36.14
2019-05-18T17:32:17.275Z,35.72
2019-05-18T17:34:45.703Z,34.49
2019-05-18T17:37:14.090Z,35.00
2019-05-18T17:39:42.529Z,35.33
2019-05-18T17:42:11.009Z,36.19
2019-05-18T17:44:39.416Z,36.13
2019-05-18T17:47:07.819Z,36.83
2019-05-18T17:49:36.302Z,36.96
2019-05-18T17:52:04.735Z,39.60
2019-05-18T17:54:33.172Z,39.14
2019-05-18T17:57:08.692Z,40.66
2019-05-18T17:59:31.784Z,41.98
2019-05-18T18:02:00.221Z,40.59
2019-05-18T18:04:28.658Z,39.30
2019-05-18T18:07:00.142Z,39.16
2019-05-18T18:09:28.561Z,39.94
2019-05-18T18:11:56.976Z,38.91
2019-05-18T18:14:25.531Z,40.71
2019-05-18T18:16:53.991Z,39.72
2019-05-18T18:19:22.378Z,40.79
2019-05-18T18:21:50.822Z,40.40
2019-05-18T18:24:19.258Z,39.92
2019-05-18T18:26:47.708Z,40.75
2019-05-18T18:29:16.153Z,41.04
2019-05-18T18:31:44.631Z,42.24
2019-05-18T18:34:13.088Z,43.14
2019-05-18T18:36:41.535Z,44.56
2019-05-18T18:39:09.998Z,44.18
2019-05-18T18:41:38.482Z,45.95
2019-05-18T18:44:06.887Z,45.87
2019-05-18T18:46:35.340Z,45.75
2019-05-18T18:49:03.812Z,45.39
2019-05-18T18:51:32.297Z,44.62
2019-05-18T18:54:00.673Z,44.78
2019-05-18T18:56:29.105Z,44.97
2019-05-18T18:58:57.550Z,43.82
2019-05-18T19:01:25.989Z,43.39
2019-05-18T19:03:54.401Z,43.75
2019-05-18T19:06:22.827Z,44.50
2019-05-18T19:08:51.233Z,44.71
2019-05-18T19:11:19.686Z,45.76
2019-05-18T19:13:47.917Z,45.21
2019-05-18T19:16:16.357Z,45.64
2019-05-18T19:18:44.791Z,45.43
2019-05-18T19:21:13.227Z,45.98
2019-05-18T19:23:41.673Z,46.00
2019-05-18T19:26:10.242Z,46.49
2019-05-18T19:28:38.646Z,47.61
2019-05-18T19:31:07.095Z,48.07
2019-05-18T19:33:35.527Z,47.64
2019-05-18T19:36:03.957Z,49.14
2019-05-18T19:38:32.376Z,48.66
2019-05-18T19:41:00.803Z,49.54
2019-05-18T19:43:29.265Z,49.49
2019-05-18T19:45:57.643Z,49.33
2019-05-18T19:48:26.164Z,49.02
2019-05-18T19:50:54.612Z,48.89
2019-05-18T19:53:23.081Z,52.24
2019-05-18T19:55:51.507Z,51.08
2019-05-18T19:58:19.942Z,51.01
2019-05-18T20:00:48.402Z,49.96
2019-05-18T20:03:16.860Z,49.62
2019-05-18T20:05:45.283Z,49.43
2019-05-18T20:08:13.724Z,49.50
2019-05-18T20:10:42.464Z,50.06
2019-05-18T20:13:10.914Z,51.43
2019-05-18T20:15:39.331Z,51.76
2019-05-18T20:18:07.776Z,52.28
2019-05-18T20:20:36.254Z,51.94
2019-05-18T20:23:08.068Z,51.97
2019-05-18T20:25:34.850Z,51.03
2019-05-18T20:28:03.384Z,51.57
2019-05-18T20:30:31.904Z,52.76
2019-05-18T20:33:00.367Z,53.21
2019-05-18T20:35:28.780Z,54.38
2019-05-18T20:37:57.251Z,54.34
2019-05-18T20:40:25.755Z,53.22
2019-05-18T20:42:54.221Z,53.00
2019-05-18T20:45:22.663Z,54.00
2019-05-18T20:47:51.117Z,53.88
2019-05-18T20:50:19.547Z,53.66
2019-05-18T20:52:47.983Z,53.83
2019-05-18T20:55:16.470Z,53.49
2019-05-18T20:57:44.931Z,53.82
2019-05-18T21:00:13.652Z,53.91
2019-05-18T21:02:42.182Z,54.64
2019-05-18T21:05:10.685Z,54.94
2019-05-18T21:07:39.155Z,55.89
2019-05-18T21:10:09.038Z,56.36
2019-05-18T21:12:37.563Z,57.18
2019-05-18T21:15:07.848Z,57.42
2019-05-18T21:17:36.285Z,56.65
2019-05-18T21:20:05.976Z,56.24
2019-05-18T21:22:34.407Z,55.70
2019-05-18T21:25:02.856Z,56.01
2019-05-18T21:27:31.281Z,54.68
2019-05-18T21:29:59.845Z,54.62
2019-05-18T21:32:28.383Z,53.84
2019-05-18T21:34:56.873Z,53.19
2019-05-18T21:37:25.298Z,52.39
2019-05-18T21:39:53.751Z,53.54
2019-05-18T21:42:22.179Z,52.61
2019-05-18T21:44:50.614Z,53.91
2019-05-18T21:47:19.069Z,54.31
2019-05-18T21:49:47.554Z,55.94
2019-05-18T21:52:15.979Z,56.94
2019-05-18T21:57:06.248Z,57.34
2019-05-18T22:00:08.095Z,57.03
2019-05-18T22:02:08.524Z,57.18
2019-05-18T22:04:36.959Z,56.63
2019-05-18T22:07:05.448Z,56.91
2019-05-18T22:09:35.430Z,58.12
2019-05-18T22:12:04.029Z,58.00
2019-05-18T22:14:32.487Z,58.28
2019-05-18T22:17:00.911Z,58.09
2019-05-18T22:19:29.451Z,58.45
2019-05-18T22:21:57.866Z,58.96
2019-05-18T22:24:26.307Z,59.19
2019-05-18T22:26:54.734Z,58.77
2019-05-18T22:29:23.227Z,58.46
2019-05-18T22:31:51.670Z,58.60
2019-05-18T22:34:20.123Z,58.34
2019-05-18T22:36:48.652Z,58.47
2019-05-18T22:39:17.101Z,58.44
2019-05-18T22:41:45.566Z,58.65
2019-05-18T22:44:14.011Z,59.88
2019-05-18T22:46:42.450Z,61.19
2019-05-18T22:49:10.914Z,60.93
2019-05-18T22:51:39.367Z,62.99
2019-05-18T22:54:07.791Z,63.49
2019-05-18T22:56:36.264Z,63.21
2019-05-18T22:59:04.760Z,64.01
2019-05-18T23:01:33.286Z,65.11
2019-05-18T23:04:01.761Z,66.24
2019-05-18T23:06:30.223Z,66.52
2019-05-18T23:08:58.666Z,66.77
2019-05-18T23:11:27.097Z,67.06
2019-05-18T23:13:55.541Z,66.79
2019-05-18T23:16:24.070Z,65.64
2019-05-18T23:18:56.695Z,65.21
2019-05-18T23:21:22.774Z,65.06
2019-05-18T23:23:51.250Z,64.14
2019-05-18T23:26:19.713Z,64.05
2019-05-18T23:28:50.090Z,63.07
2019-05-18T23:31:18.530Z,63.21
2019-05-18T23:33:50.036Z,63.36
2019-05-18T23:36:18.471Z,62.36
2019-05-18T23:38:46.915Z,62.63
2019-05-18T23:41:15.378Z,63.14
2019-05-18T23:43:43.869Z,62.23
2019-05-18T23:46:12.353Z,62.51
2019-05-18T23:48:43.781Z,62.06
2019-05-18T23:51:12.256Z,62.84
2019-05-18T23:53:40.695Z,62.89
2019-05-18T23:56:09.138Z,62.82
2019-05-18T23:58:37.596Z,64.11
